sensor_id;sensor_type;location;lat;lon;timestamp;P1;durP1;ratioP1;P2;durP2;ratioP2
25163;SDS011;13440;50.860;13.662;2022-07-29T00:00:34;46.42;;;29.38;;
25163;SDS011;13440;50.860;13.662;2022-07-29T00:03:00;49.40;;;31.13;;
25163;SDS011;13440;50.860;13.662;2022-07-29T00:05:25;54.05;;;32.85;;
25163;SDS011;13440;50.860;13.662;2022-07-29T00:07:50;51.28;;;31.00;;
25163;SDS011;13440;50.860;13.662;2022-07-29T00:10:15;48.53;;;31.25;;
25163;SDS011;13440;50.860;13.662;2022-07-29T00:12:41;49.15;;;31.08;;
25163;SDS011;13440;50.860;13.662;2022-07-29T00:15:06;52.30;;;33.55;;
25163;SDS011;13440;50.860;13.662;2022-07-29T00:17:32;52.22;;;33.17;;
25163;SDS011;13440;50.860;13.662;2022-07-29T00:19:59;46.38;;;32.00;;
25163;SDS011;13440;50.860;13.662;2022-07-29T00:22:24;51.35;;;33.00;;
25163;SDS011;13440;50.860;13.662;2022-07-29T00:24:50;53.58;;;32.83;;
25163;SDS011;13440;50.860;13.662;2022-07-29T00:27:15;47.33;;;32.92;;
25163;SDS011;13440;50.860;13.662;2022-07-29T00:29:40;48.28;;;32.45;;
25163;SDS011;13440;50.860;13.662;2022-07-29T00:32:06;47.45;;;32.22;;
25163;SDS011;13440;50.860;13.662;2022-07-29T00:34:31;49.53;;;31.25;;
25163;SDS011;13440;50.860;13.662;2022-07-29T00:37:15;47.53;;;30.83;;
25163;SDS011;13440;50.860;13.662;2022-07-29T00:39:40;48.10;;;32.38;;
25163;SDS011;13440;50.860;13.662;2022-07-29T00:42:06;49.20;;;32.40;;
25163;SDS011;13440;50.860;13.662;2022-07-29T00:44:35;45.05;;;31.67;;
25163;SDS011;13440;50.860;13.662;2022-07-29T00:47:01;46.25;;;30.88;;
25163;SDS011;13440;50.860;13.662;2022-07-29T00:49:26;44.20;;;29.88;;
25163;SDS011;13440;50.860;13.662;2022-07-29T00:51:52;45.85;;;30.75;;
25163;SDS011;13440;50.860;13.662;2022-07-29T00:54:17;43.15;;;30.15;;
25163;SDS011;13440;50.860;13.662;2022-07-29T00:56:43;48.15;;;31.40;;
25163;SDS011;13440;50.860;13.662;2022-07-29T00:59:08;43.40;;;30.42;;
25163;SDS011;13440;50.860;13.662;2022-07-29T01:01:33;41.90;;;27.92;;
25163;SDS011;13440;50.860;13.662;2022-07-29T01:03:59;43.80;;;28.58;;
25163;SDS011;13440;50.860;13.662;2022-07-29T01:06:24;41.72;;;27.92;;
25163;SDS011;13440;50.860;13.662;2022-07-29T01:08:49;40.70;;;26.85;;
25163;SDS011;13440;50.860;13.662;2022-07-29T01:11:15;38.10;;;25.20;;
25163;SDS011;13440;50.860;13.662;2022-07-29T01:13:41;36.20;;;25.45;;
25163;SDS011;13440;50.860;13.662;2022-07-29T01:16:10;34.95;;;24.80;;
25163;SDS011;13440;50.860;13.662;2022-07-29T01:18:39;38.88;;;24.90;;
25163;SDS011;13440;50.860;13.662;2022-07-29T01:21:17;39.55;;;24.17;;
25163;SDS011;13440;50.860;13.662;2022-07-29T01:23:48;34.20;;;22.67;;
25163;SDS011;13440;50.860;13.662;2022-07-29T01:31:38;33.30;;;21.50;;
25163;SDS011;13440;50.860;13.662;2022-07-29T01:34:07;31.77;;;20.42;;
25163;SDS011;13440;50.860;13.662;2022-07-29T01:36:35;31.40;;;20.35;;
25163;SDS011;13440;50.860;13.662;2022-07-29T01:39:08;32.67;;;20.02;;
25163;SDS011;13440;50.860;13.662;2022-07-29T01:41:36;25.38;;;16.50;;
25163;SDS011;13440;50.860;13.662;2022-07-29T01:44:06;24.05;;;17.35;;
25163;SDS011;13440;50.860;13.662;2022-07-29T01:46:35;25.42;;;17.13;;
25163;SDS011;13440;50.860;13.662;2022-07-29T01:49:06;24.65;;;16.55;;
25163;SDS011;13440;50.860;13.662;2022-07-29T01:51:35;23.27;;;14.57;;
25163;SDS011;13440;50.860;13.662;2022-07-29T01:56:44;22.08;;;13.75;;
25163;SDS011;13440;50.860;13.662;2022-07-29T01:59:10;25.77;;;15.25;;
25163;SDS011;13440;50.860;13.662;2022-07-29T02:01:36;19.77;;;13.48;;
25163;SDS011;13440;50.860;13.662;2022-07-29T02:04:02;22.95;;;14.27;;
25163;SDS011;13440;50.860;13.662;2022-07-29T02:06:28;25.75;;;14.98;;
25163;SDS011;13440;50.860;13.662;2022-07-29T02:08:55;24.65;;;14.68;;
25163;SDS011;13440;50.860;13.662;2022-07-29T02:11:22;19.80;;;13.35;;
25163;SDS011;13440;50.860;13.662;2022-07-29T02:13:47;22.17;;;13.13;;
25163;SDS011;13440;50.860;13.662;2022-07-29T02:16:13;18.35;;;11.63;;
25163;SDS011;13440;50.860;13.662;2022-07-29T02:18:40;19.13;;;11.30;;
25163;SDS011;13440;50.860;13.662;2022-07-29T02:21:07;14.65;;;9.82;;
25163;SDS011;13440;50.860;13.662;2022-07-29T02:23:33;14.63;;;9.95;;
25163;SDS011;13440;50.860;13.662;2022-07-29T02:26:00;18.05;;;10.45;;
25163;SDS011;13440;50.860;13.662;2022-07-29T02:28:27;19.58;;;11.73;;
25163;SDS011;13440;50.860;13.662;2022-07-29T02:30:53;15.95;;;10.35;;
25163;SDS011;13440;50.860;13.662;2022-07-29T02:33:19;16.85;;;10.20;;
25163;SDS011;13440;50.860;13.662;2022-07-29T02:35:46;13.55;;;8.45;;
25163;SDS011;13440;50.860;13.662;2022-07-29T02:38:13;11.80;;;7.72;;
25163;SDS011;13440;50.860;13.662;2022-07-29T02:40:58;10.80;;;6.95;;
25163;SDS011;13440;50.860;13.662;2022-07-29T02:43:24;13.13;;;7.03;;
25163;SDS011;13440;50.860;13.662;2022-07-29T02:45:51;10.98;;;6.55;;
25163;SDS011;13440;50.860;13.662;2022-07-29T02:48:17;11.73;;;6.03;;
25163;SDS011;13440;50.860;13.662;2022-07-29T02:50:48;12.50;;;5.85;;
25163;SDS011;13440;50.860;13.662;2022-07-29T02:53:18;9.52;;;5.47;;
25163;SDS011;13440;50.860;13.662;2022-07-29T02:56:27;7.45;;;5.35;;
25163;SDS011;13440;50.860;13.662;2022-07-29T02:58:34;9.93;;;4.80;;
25163;SDS011;13440;50.860;13.662;2022-07-29T03:01:13;7.40;;;4.47;;
25163;SDS011;13440;50.860;13.662;2022-07-29T03:03:39;8.45;;;4.90;;
25163;SDS011;13440;50.860;13.662;2022-07-29T03:06:05;13.98;;;8.82;;
25163;SDS011;13440;50.860;13.662;2022-07-29T03:08:32;14.48;;;9.20;;
25163;SDS011;13440;50.860;13.662;2022-07-29T03:10:57;21.23;;;14.40;;
25163;SDS011;13440;50.860;13.662;2022-07-29T03:13:23;15.82;;;10.70;;
25163;SDS011;13440;50.860;13.662;2022-07-29T03:15:49;24.52;;;15.65;;
25163;SDS011;13440;50.860;13.662;2022-07-29T03:18:15;14.90;;;8.38;;
25163;SDS011;13440;50.860;13.662;2022-07-29T03:20:40;15.68;;;9.65;;
25163;SDS011;13440;50.860;13.662;2022-07-29T03:23:06;13.18;;;9.18;;
25163;SDS011;13440;50.860;13.662;2022-07-29T03:25:32;12.35;;;7.75;;
25163;SDS011;13440;50.860;13.662;2022-07-29T03:27:57;10.20;;;5.85;;
25163;SDS011;13440;50.860;13.662;2022-07-29T03:30:24;6.32;;;5.38;;
25163;SDS011;13440;50.860;13.662;2022-07-29T03:32:51;10.25;;;7.80;;
25163;SDS011;13440;50.860;13.662;2022-07-29T03:35:17;9.10;;;5.68;;
25163;SDS011;13440;50.860;13.662;2022-07-29T03:37:45;10.48;;;7.70;;
25163;SDS011;13440;50.860;13.662;2022-07-29T03:40:11;8.60;;;5.13;;
25163;SDS011;13440;50.860;13.662;2022-07-29T03:42:39;7.93;;;4.22;;
25163;SDS011;13440;50.860;13.662;2022-07-29T03:45:06;6.63;;;4.75;;
25163;SDS011;13440;50.860;13.662;2022-07-29T03:47:32;8.93;;;4.53;;
25163;SDS011;13440;50.860;13.662;2022-07-29T03:50:00;9.35;;;4.63;;
25163;SDS011;13440;50.860;13.662;2022-07-29T03:52:27;6.78;;;3.75;;
25163;SDS011;13440;50.860;13.662;2022-07-29T03:54:52;8.93;;;3.72;;
25163;SDS011;13440;50.860;13.662;2022-07-29T03:57:18;4.28;;;3.47;;
25163;SDS011;13440;50.860;13.662;2022-07-29T03:59:44;5.32;;;3.30;;
25163;SDS011;13440;50.860;13.662;2022-07-29T04:02:11;5.18;;;3.22;;
25163;SDS011;13440;50.860;13.662;2022-07-29T04:04:36;5.93;;;3.58;;
25163;SDS011;13440;50.860;13.662;2022-07-29T04:07:02;7.50;;;3.55;;
25163;SDS011;13440;50.860;13.662;2022-07-29T04:09:28;6.32;;;3.40;;
25163;SDS011;13440;50.860;13.662;2022-07-29T04:11:53;5.10;;;3.45;;
25163;SDS011;13440;50.860;13.662;2022-07-29T04:14:18;4.90;;;3.25;;
25163;SDS011;13440;50.860;13.662;2022-07-29T04:16:44;8.23;;;3.42;;
25163;SDS011;13440;50.860;13.662;2022-07-29T04:19:09;6.05;;;3.63;;
25163;SDS011;13440;50.860;13.662;2022-07-29T04:21:38;5.85;;;3.28;;
25163;SDS011;13440;50.860;13.662;2022-07-29T04:24:03;6.20;;;3.25;;
25163;SDS011;13440;50.860;13.662;2022-07-29T04:26:29;5.15;;;3.28;;
25163;SDS011;13440;50.860;13.662;2022-07-29T04:28:54;6.38;;;3.47;;
25163;SDS011;13440;50.860;13.662;2022-07-29T04:31:19;6.20;;;3.30;;
25163;SDS011;13440;50.860;13.662;2022-07-29T04:33:45;15.77;;;10.57;;
25163;SDS011;13440;50.860;13.662;2022-07-29T04:36:10;8.38;;;4.95;;
25163;SDS011;13440;50.860;13.662;2022-07-29T04:38:36;41.10;;;26.50;;
25163;SDS011;13440;50.860;13.662;2022-07-29T04:41:01;7.50;;;4.22;;
25163;SDS011;13440;50.860;13.662;2022-07-29T04:43:27;6.63;;;3.80;;
25163;SDS011;13440;50.860;13.662;2022-07-29T04:45:52;5.65;;;3.15;;
25163;SDS011;13440;50.860;13.662;2022-07-29T04:48:17;4.97;;;3.10;;
25163;SDS011;13440;50.860;13.662;2022-07-29T04:50:43;5.70;;;3.30;;
25163;SDS011;13440;50.860;13.662;2022-07-29T04:53:09;6.28;;;2.95;;
25163;SDS011;13440;50.860;13.662;2022-07-29T04:55:34;8.00;;;3.10;;
25163;SDS011;13440;50.860;13.662;2022-07-29T04:58:01;6.95;;;3.40;;
25163;SDS011;13440;50.860;13.662;2022-07-29T05:00:26;6.00;;;3.28;;
25163;SDS011;13440;50.860;13.662;2022-07-29T05:02:52;5.88;;;2.90;;
25163;SDS011;13440;50.860;13.662;2022-07-29T05:05:17;4.03;;;3.13;;
25163;SDS011;13440;50.860;13.662;2022-07-29T05:07:42;6.65;;;3.55;;
25163;SDS011;13440;50.860;13.662;2022-07-29T05:10:08;6.38;;;3.30;;
25163;SDS011;13440;50.860;13.662;2022-07-29T05:12:33;5.80;;;2.60;;
25163;SDS011;13440;50.860;13.662;2022-07-29T05:14:59;7.72;;;3.33;;
25163;SDS011;13440;50.860;13.662;2022-07-29T05:17:24;6.00;;;3.42;;
25163;SDS011;13440;50.860;13.662;2022-07-29T05:19:49;5.40;;;3.00;;
25163;SDS011;13440;50.860;13.662;2022-07-29T05:22:17;6.78;;;3.05;;
25163;SDS011;13440;50.860;13.662;2022-07-29T05:24:42;6.00;;;3.08;;
25163;SDS011;13440;50.860;13.662;2022-07-29T05:27:07;5.25;;;3.17;;
25163;SDS011;13440;50.860;13.662;2022-07-29T05:29:33;5.47;;;3.00;;
25163;SDS011;13440;50.860;13.662;2022-07-29T05:31:58;8.25;;;3.00;;
25163;SDS011;13440;50.860;13.662;2022-07-29T05:34:23;3.30;;;2.70;;
25163;SDS011;13440;50.860;13.662;2022-07-29T05:36:50;3.83;;;2.58;;
25163;SDS011;13440;50.860;13.662;2022-07-29T05:39:15;6.18;;;2.80;;
25163;SDS011;13440;50.860;13.662;2022-07-29T05:41:41;5.72;;;3.03;;
25163;SDS011;13440;50.860;13.662;2022-07-29T05:44:06;6.60;;;2.78;;
25163;SDS011;13440;50.860;13.662;2022-07-29T05:46:31;4.03;;;3.00;;
25163;SDS011;13440;50.860;13.662;2022-07-29T05:48:57;4.05;;;2.80;;
25163;SDS011;13440;50.860;13.662;2022-07-29T05:51:22;6.60;;;3.27;;
25163;SDS011;13440;50.860;13.662;2022-07-29T05:53:47;10.15;;;3.63;;
25163;SDS011;13440;50.860;13.662;2022-07-29T05:56:13;7.50;;;3.33;;
25163;SDS011;13440;50.860;13.662;2022-07-29T05:58:38;7.88;;;3.38;;
25163;SDS011;13440;50.860;13.662;2022-07-29T06:01:03;7.35;;;3.28;;
25163;SDS011;13440;50.860;13.662;2022-07-29T06:03:28;6.18;;;3.03;;
25163;SDS011;13440;50.860;13.662;2022-07-29T06:05:54;5.00;;;3.38;;
25163;SDS011;13440;50.860;13.662;2022-07-29T06:08:19;5.82;;;3.13;;
25163;SDS011;13440;50.860;13.662;2022-07-29T06:10:44;5.65;;;3.08;;
25163;SDS011;13440;50.860;13.662;2022-07-29T06:13:10;7.38;;;3.22;;
25163;SDS011;13440;50.860;13.662;2022-07-29T06:15:36;4.68;;;3.00;;
25163;SDS011;13440;50.860;13.662;2022-07-29T06:18:01;12.80;;;3.38;;
25163;SDS011;13440;50.860;13.662;2022-07-29T06:20:30;5.00;;;3.00;;
25163;SDS011;13440;50.860;13.662;2022-07-29T06:22:55;5.82;;;3.50;;
25163;SDS011;13440;50.860;13.662;2022-07-29T06:25:21;4.53;;;3.00;;
25163;SDS011;13440;50.860;13.662;2022-07-29T06:27:46;4.13;;;2.92;;
25163;SDS011;13440;50.860;13.662;2022-07-29T06:30:12;6.28;;;3.28;;
25163;SDS011;13440;50.860;13.662;2022-07-29T06:32:37;6.28;;;3.08;;
25163;SDS011;13440;50.860;13.662;2022-07-29T06:35:03;7.18;;;3.00;;
25163;SDS011;13440;50.860;13.662;2022-07-29T06:37:28;10.63;;;2.97;;
25163;SDS011;13440;50.860;13.662;2022-07-29T06:39:53;4.53;;;2.80;;
25163;SDS011;13440;50.860;13.662;2022-07-29T06:42:42;32.85;;;22.00;;
25163;SDS011;13440;50.860;13.662;2022-07-29T06:45:08;5.78;;;2.75;;
25163;SDS011;13440;50.860;13.662;2022-07-29T06:47:33;6.70;;;3.00;;
25163;SDS011;13440;50.860;13.662;2022-07-29T06:49:59;8.23;;;3.55;;
25163;SDS011;13440;50.860;13.662;2022-07-29T06:52:24;4.82;;;2.90;;
25163;SDS011;13440;50.860;13.662;2022-07-29T06:54:50;44.75;;;34.72;;
25163;SDS011;13440;50.860;13.662;2022-07-29T06:57:15;5.95;;;3.75;;
25163;SDS011;13440;50.860;13.662;2022-07-29T06:59:41;6.10;;;3.42;;
25163;SDS011;13440;50.860;13.662;2022-07-29T07:02:06;3.92;;;3.03;;
25163;SDS011;13440;50.860;13.662;2022-07-29T07:04:31;4.38;;;2.97;;
25163;SDS011;13440;50.860;13.662;2022-07-29T07:06:57;8.40;;;5.47;;
25163;SDS011;13440;50.860;13.662;2022-07-29T07:09:22;8.88;;;3.30;;
25163;SDS011;13440;50.860;13.662;2022-07-29T07:11:48;7.03;;;3.97;;
25163;SDS011;13440;50.860;13.662;2022-07-29T07:14:13;5.82;;;2.85;;
25163;SDS011;13440;50.860;13.662;2022-07-29T07:16:38;5.15;;;3.00;;
25163;SDS011;13440;50.860;13.662;2022-07-29T07:19:04;6.88;;;4.00;;
25163;SDS011;13440;50.860;13.662;2022-07-29T07:21:29;7.53;;;3.30;;
25163;SDS011;13440;50.860;13.662;2022-07-29T07:23:54;5.35;;;3.67;;
25163;SDS011;13440;50.860;13.662;2022-07-29T07:26:20;6.13;;;3.85;;
25163;SDS011;13440;50.860;13.662;2022-07-29T07:28:45;5.60;;;3.50;;
25163;SDS011;13440;50.860;13.662;2022-07-29T07:31:10;7.78;;;3.90;;
25163;SDS011;13440;50.860;13.662;2022-07-29T07:33:36;7.45;;;3.70;;
25163;SDS011;13440;50.860;13.662;2022-07-29T07:36:01;9.70;;;4.63;;
25163;SDS011;13440;50.860;13.662;2022-07-29T07:38:26;5.07;;;3.40;;
25163;SDS011;13440;50.860;13.662;2022-07-29T07:40:52;6.40;;;3.60;;
25163;SDS011;13440;50.860;13.662;2022-07-29T07:43:17;10.38;;;4.13;;
25163;SDS011;13440;50.860;13.662;2022-07-29T07:45:42;7.60;;;4.45;;
25163;SDS011;13440;50.860;13.662;2022-07-29T07:48:08;9.85;;;4.22;;
25163;SDS011;13440;50.860;13.662;2022-07-29T07:50:35;10.55;;;5.05;;
25163;SDS011;13440;50.860;13.662;2022-07-29T07:53:00;11.18;;;3.97;;
25163;SDS011;13440;50.860;13.662;2022-07-29T07:55:27;10.80;;;4.50;;
25163;SDS011;13440;50.860;13.662;2022-07-29T07:57:52;8.68;;;4.97;;
25163;SDS011;13440;50.860;13.662;2022-07-29T08:00:18;9.90;;;4.40;;
25163;SDS011;13440;50.860;13.662;2022-07-29T08:02:43;10.23;;;3.90;;
25163;SDS011;13440;50.860;13.662;2022-07-29T08:05:10;8.75;;;3.70;;
25163;SDS011;13440;50.860;13.662;2022-07-29T08:07:36;8.30;;;3.42;;
25163;SDS011;13440;50.860;13.662;2022-07-29T08:10:02;8.00;;;3.45;;
25163;SDS011;13440;50.860;13.662;2022-07-29T08:12:27;7.68;;;3.47;;
25163;SDS011;13440;50.860;13.662;2022-07-29T08:14:53;6.00;;;3.33;;
25163;SDS011;13440;50.860;13.662;2022-07-29T08:17:19;4.75;;;2.75;;
25163;SDS011;13440;50.860;13.662;2022-07-29T08:19:44;4.35;;;3.22;;
25163;SDS011;13440;50.860;13.662;2022-07-29T08:22:09;7.75;;;4.07;;
25163;SDS011;13440;50.860;13.662;2022-07-29T08:24:35;9.95;;;2.88;;
25163;SDS011;13440;50.860;13.662;2022-07-29T08:27:09;2.85;;;2.33;;
25163;SDS011;13440;50.860;13.662;2022-07-29T08:29:35;3.70;;;2.65;;
25163;SDS011;13440;50.860;13.662;2022-07-29T08:32:00;4.00;;;2.45;;
25163;SDS011;13440;50.860;13.662;2022-07-29T08:34:26;5.82;;;2.63;;
25163;SDS011;13440;50.860;13.662;2022-07-29T08:36:51;5.88;;;4.78;;
25163;SDS011;13440;50.860;13.662;2022-07-29T08:39:17;6.20;;;2.60;;
25163;SDS011;13440;50.860;13.662;2022-07-29T08:41:42;5.53;;;2.60;;
25163;SDS011;13440;50.860;13.662;2022-07-29T08:44:08;2.90;;;2.60;;
25163;SDS011;13440;50.860;13.662;2022-07-29T08:46:34;6.05;;;2.70;;
25163;SDS011;13440;50.860;13.662;2022-07-29T08:49:02;5.80;;;2.83;;
25163;SDS011;13440;50.860;13.662;2022-07-29T08:51:33;4.95;;;2.70;;
25163;SDS011;13440;50.860;13.662;2022-07-29T08:53:58;3.38;;;2.63;;
25163;SDS011;13440;50.860;13.662;2022-07-29T08:56:24;6.05;;;2.42;;
25163;SDS011;13440;50.860;13.662;2022-07-29T08:58:49;4.93;;;2.50;;
25163;SDS011;13440;50.860;13.662;2022-07-29T09:01:16;5.18;;;2.25;;
25163;SDS011;13440;50.860;13.662;2022-07-29T09:03:43;5.43;;;2.50;;
25163;SDS011;13440;50.860;13.662;2022-07-29T09:06:11;6.88;;;2.83;;
25163;SDS011;13440;50.860;13.662;2022-07-29T09:08:37;4.70;;;2.47;;
25163;SDS011;13440;50.860;13.662;2022-07-29T09:11:03;3.72;;;2.50;;
25163;SDS011;13440;50.860;13.662;2022-07-29T09:13:28;4.32;;;2.38;;
25163;SDS011;13440;50.860;13.662;2022-07-29T09:15:53;6.35;;;2.60;;
25163;SDS011;13440;50.860;13.662;2022-07-29T09:18:35;3.55;;;2.60;;
25163;SDS011;13440;50.860;13.662;2022-07-29T09:21:01;9.50;;;4.38;;
25163;SDS011;13440;50.860;13.662;2022-07-29T09:26:29;6.15;;;2.60;;
25163;SDS011;13440;50.860;13.662;2022-07-29T09:28:55;3.17;;;2.30;;
25163;SDS011;13440;50.860;13.662;2022-07-29T09:31:27;7.07;;;2.70;;
25163;SDS011;13440;50.860;13.662;2022-07-29T09:33:57;6.13;;;2.63;;
25163;SDS011;13440;50.860;13.662;2022-07-29T09:36:22;6.75;;;2.58;;
25163;SDS011;13440;50.860;13.662;2022-07-29T09:38:57;5.90;;;2.38;;
25163;SDS011;13440;50.860;13.662;2022-07-29T09:41:22;4.90;;;2.50;;
25163;SDS011;13440;50.860;13.662;2022-07-29T09:43:57;6.80;;;2.30;;
25163;SDS011;13440;50.860;13.662;2022-07-29T09:46:23;6.38;;;2.30;;
25163;SDS011;13440;50.860;13.662;2022-07-29T09:49:08;2.55;;;2.33;;
25163;SDS011;13440;50.860;13.662;2022-07-29T09:51:36;4.15;;;2.30;;
25163;SDS011;13440;50.860;13.662;2022-07-29T09:54:02;4.53;;;1.92;;
25163;SDS011;13440;50.860;13.662;2022-07-29T09:56:39;3.60;;;2.47;;
25163;SDS011;13440;50.860;13.662;2022-07-29T09:59:05;3.45;;;2.50;;
25163;SDS011;13440;50.860;13.662;2022-07-29T10:01:31;3.70;;;2.33;;
25163;SDS011;13440;50.860;13.662;2022-07-29T10:03:56;4.28;;;2.20;;
25163;SDS011;13440;50.860;13.662;2022-07-29T10:06:22;4.25;;;2.33;;
25163;SDS011;13440;50.860;13.662;2022-07-29T10:08:47;2.58;;;2.38;;
25163;SDS011;13440;50.860;13.662;2022-07-29T10:11:17;4.30;;;2.38;;
25163;SDS011;13440;50.860;13.662;2022-07-29T10:13:43;5.25;;;2.50;;
25163;SDS011;13440;50.860;13.662;2022-07-29T10:16:09;3.60;;;2.17;;
25163;SDS011;13440;50.860;13.662;2022-07-29T10:18:34;5.15;;;2.30;;
25163;SDS011;13440;50.860;13.662;2022-07-29T10:21:00;4.80;;;2.40;;
25163;SDS011;13440;50.860;13.662;2022-07-29T10:23:26;2.97;;;2.33;;
25163;SDS011;13440;50.860;13.662;2022-07-29T10:25:52;24.73;;;17.15;;
25163;SDS011;13440;50.860;13.662;2022-07-29T10:28:17;4.57;;;3.13;;
25163;SDS011;13440;50.860;13.662;2022-07-29T10:30:43;3.60;;;2.15;;
25163;SDS011;13440;50.860;13.662;2022-07-29T10:38:26;3.22;;;2.42;;
25163;SDS011;13440;50.860;13.662;2022-07-29T10:43:51;4.07;;;2.55;;
25163;SDS011;13440;50.860;13.662;2022-07-29T10:46:17;14.20;;;12.65;;
25163;SDS011;13440;50.860;13.662;2022-07-29T10:51:34;4.97;;;2.75;;
25163;SDS011;13440;50.860;13.662;2022-07-29T10:54:12;4.70;;;2.90;;
25163;SDS011;13440;50.860;13.662;2022-07-29T10:56:44;7.57;;;2.90;;
25163;SDS011;13440;50.860;13.662;2022-07-29T11:01:51;4.70;;;2.85;;
25163;SDS011;13440;50.860;13.662;2022-07-29T11:09:31;4.88;;;2.70;;
25163;SDS011;13440;50.860;13.662;2022-07-29T11:11:57;4.85;;;2.75;;
25163;SDS011;13440;50.860;13.662;2022-07-29T11:17:06;6.88;;;3.03;;
25163;SDS011;13440;50.860;13.662;2022-07-29T11:19:33;7.10;;;2.55;;
25163;SDS011;13440;50.860;13.662;2022-07-29T11:21:58;3.03;;;2.72;;
25163;SDS011;13440;50.860;13.662;2022-07-29T11:24:28;5.72;;;2.90;;
25163;SDS011;13440;50.860;13.662;2022-07-29T11:29:56;6.95;;;3.60;;
25163;SDS011;13440;50.860;13.662;2022-07-29T11:32:35;5.13;;;2.88;;
25163;SDS011;13440;50.860;13.662;2022-07-29T11:35:11;5.75;;;3.17;;
25163;SDS011;13440;50.860;13.662;2022-07-29T11:37:37;4.00;;;2.70;;
25163;SDS011;13440;50.860;13.662;2022-07-29T11:47:22;5.10;;;2.70;;
25163;SDS011;13440;50.860;13.662;2022-07-29T11:49:48;3.80;;;2.60;;
25163;SDS011;13440;50.860;13.662;2022-07-29T11:52:16;3.70;;;2.45;;
25163;SDS011;13440;50.860;13.662;2022-07-29T11:54:41;7.45;;;3.00;;
25163;SDS011;13440;50.860;13.662;2022-07-29T11:57:07;5.28;;;3.08;;
25163;SDS011;13440;50.860;13.662;2022-07-29T11:59:37;8.70;;;2.75;;
25163;SDS011;13440;50.860;13.662;2022-07-29T12:02:03;5.07;;;2.35;;
25163;SDS011;13440;50.860;13.662;2022-07-29T12:04:28;4.72;;;2.70;;
25163;SDS011;13440;50.860;13.662;2022-07-29T12:06:54;4.65;;;2.92;;
25163;SDS011;13440;50.860;13.662;2022-07-29T12:09:20;8.10;;;2.70;;
25163;SDS011;13440;50.860;13.662;2022-07-29T12:11:46;5.82;;;3.03;;
25163;SDS011;13440;50.860;13.662;2022-07-29T12:14:25;4.10;;;2.42;;
25163;SDS011;13440;50.860;13.662;2022-07-29T12:16:51;7.43;;;2.65;;
25163;SDS011;13440;50.860;13.662;2022-07-29T12:19:16;5.18;;;2.97;;
25163;SDS011;13440;50.860;13.662;2022-07-29T12:21:48;6.38;;;2.80;;
25163;SDS011;13440;50.860;13.662;2022-07-29T12:24:14;5.53;;;2.75;;
25163;SDS011;13440;50.860;13.662;2022-07-29T12:26:49;4.43;;;2.47;;
25163;SDS011;13440;50.860;13.662;2022-07-29T12:29:15;5.03;;;3.00;;
25163;SDS011;13440;50.860;13.662;2022-07-29T12:31:41;10.15;;;2.85;;
25163;SDS011;13440;50.860;13.662;2022-07-29T12:34:07;4.18;;;2.70;;
25163;SDS011;13440;50.860;13.662;2022-07-29T12:36:32;4.97;;;2.80;;
25163;SDS011;13440;50.860;13.662;2022-07-29T12:38:57;5.45;;;2.95;;
25163;SDS011;13440;50.860;13.662;2022-07-29T12:41:23;4.20;;;2.80;;
25163;SDS011;13440;50.860;13.662;2022-07-29T12:43:52;4.03;;;2.50;;
25163;SDS011;13440;50.860;13.662;2022-07-29T12:46:18;5.57;;;2.80;;
25163;SDS011;13440;50.860;13.662;2022-07-29T12:48:43;4.90;;;2.60;;
25163;SDS011;13440;50.860;13.662;2022-07-29T12:51:08;4.38;;;2.75;;
25163;SDS011;13440;50.860;13.662;2022-07-29T12:53:35;3.42;;;2.60;;
25163;SDS011;13440;50.860;13.662;2022-07-29T12:56:01;5.85;;;2.67;;
25163;SDS011;13440;50.860;13.662;2022-07-29T13:01:12;3.08;;;2.67;;
25163;SDS011;13440;50.860;13.662;2022-07-29T13:03:52;5.03;;;2.83;;
25163;SDS011;13440;50.860;13.662;2022-07-29T13:06:28;6.90;;;2.72;;
25163;SDS011;13440;50.860;13.662;2022-07-29T13:11:31;6.15;;;2.83;;
25163;SDS011;13440;50.860;13.662;2022-07-29T13:13:57;4.57;;;2.72;;
25163;SDS011;13440;50.860;13.662;2022-07-29T13:16:22;5.47;;;2.67;;
25163;SDS011;13440;50.860;13.662;2022-07-29T13:18:48;7.10;;;2.53;;
25163;SDS011;13440;50.860;13.662;2022-07-29T13:21:14;3.88;;;2.60;;
25163;SDS011;13440;50.860;13.662;2022-07-29T13:23:40;4.25;;;2.78;;
25163;SDS011;13440;50.860;13.662;2022-07-29T13:26:08;5.57;;;2.70;;
25163;SDS011;13440;50.860;13.662;2022-07-29T13:28:34;4.38;;;2.60;;
25163;SDS011;13440;50.860;13.662;2022-07-29T13:30:59;4.35;;;2.70;;
25163;SDS011;13440;50.860;13.662;2022-07-29T13:33:25;6.60;;;3.00;;
25163;SDS011;13440;50.860;13.662;2022-07-29T13:35:50;7.22;;;2.95;;
25163;SDS011;13440;50.860;13.662;2022-07-29T13:38:15;3.10;;;2.40;;
25163;SDS011;13440;50.860;13.662;2022-07-29T13:40:41;7.65;;;2.70;;
25163;SDS011;13440;50.860;13.662;2022-07-29T13:43:08;7.43;;;2.80;;
25163;SDS011;13440;50.860;13.662;2022-07-29T13:45:34;4.15;;;2.80;;
25163;SDS011;13440;50.860;13.662;2022-07-29T13:47:59;3.53;;;2.80;;
25163;SDS011;13440;50.860;13.662;2022-07-29T13:50:24;6.68;;;2.67;;
25163;SDS011;13440;50.860;13.662;2022-07-29T13:52:49;4.15;;;2.47;;
25163;SDS011;13440;50.860;13.662;2022-07-29T13:55:16;6.55;;;2.83;;
25163;SDS011;13440;50.860;13.662;2022-07-29T13:57:41;6.32;;;2.75;;
25163;SDS011;13440;50.860;13.662;2022-07-29T14:00:06;5.15;;;2.70;;
25163;SDS011;13440;50.860;13.662;2022-07-29T14:02:33;5.75;;;2.85;;
25163;SDS011;13440;50.860;13.662;2022-07-29T14:04:58;2.80;;;2.53;;
25163;SDS011;13440;50.860;13.662;2022-07-29T14:07:24;16.58;;;10.73;;
25163;SDS011;13440;50.860;13.662;2022-07-29T14:09:50;3.58;;;2.75;;
25163;SDS011;13440;50.860;13.662;2022-07-29T14:12:15;5.82;;;2.55;;
25163;SDS011;13440;50.860;13.662;2022-07-29T14:14:40;3.58;;;2.80;;
25163;SDS011;13440;50.860;13.662;2022-07-29T14:17:06;34.03;;;4.00;;
25163;SDS011;13440;50.860;13.662;2022-07-29T14:19:32;2.80;;;2.60;;
25163;SDS011;13440;50.860;13.662;2022-07-29T14:22:00;3.50;;;2.85;;
25163;SDS011;13440;50.860;13.662;2022-07-29T14:24:26;11.35;;;7.50;;
25163;SDS011;13440;50.860;13.662;2022-07-29T14:26:52;3.70;;;2.80;;
25163;SDS011;13440;50.860;13.662;2022-07-29T14:29:17;5.82;;;2.80;;
25163;SDS011;13440;50.860;13.662;2022-07-29T14:31:42;6.07;;;3.00;;
25163;SDS011;13440;50.860;13.662;2022-07-29T14:34:08;5.13;;;3.00;;
25163;SDS011;13440;50.860;13.662;2022-07-29T14:36:34;5.03;;;2.67;;
25163;SDS011;13440;50.860;13.662;2022-07-29T14:38:59;7.80;;;2.92;;
25163;SDS011;13440;50.860;13.662;2022-07-29T14:41:25;7.40;;;2.83;;
25163;SDS011;13440;50.860;13.662;2022-07-29T14:43:53;4.45;;;2.50;;
25163;SDS011;13440;50.860;13.662;2022-07-29T14:46:18;12.50;;;3.10;;
25163;SDS011;13440;50.860;13.662;2022-07-29T14:48:43;4.72;;;2.67;;
25163;SDS011;13440;50.860;13.662;2022-07-29T14:51:09;6.60;;;2.97;;
25163;SDS011;13440;50.860;13.662;2022-07-29T14:53:35;5.63;;;2.85;;
25163;SDS011;13440;50.860;13.662;2022-07-29T14:56:00;5.30;;;2.90;;
25163;SDS011;13440;50.860;13.662;2022-07-29T14:58:26;7.75;;;2.88;;
25163;SDS011;13440;50.860;13.662;2022-07-29T15:00:51;14.25;;;10.90;;
25163;SDS011;13440;50.860;13.662;2022-07-29T15:03:17;5.80;;;2.60;;
25163;SDS011;13440;50.860;13.662;2022-07-29T15:05:42;5.38;;;2.90;;
25163;SDS011;13440;50.860;13.662;2022-07-29T15:08:08;4.32;;;3.10;;
25163;SDS011;13440;50.860;13.662;2022-07-29T15:10:33;6.57;;;2.90;;
25163;SDS011;13440;50.860;13.662;2022-07-29T15:12:58;4.97;;;3.00;;